createdAt,value
2023-03-30T00:05:43.041Z,23.8
2023-03-30T00:15:44.136Z,23.8
2023-03-30T00:25:45.260Z,24.1
2023-03-30T00:35:46.425Z,23.8
2023-03-30T00:45:48.062Z,23.9
2023-03-30T00:55:48.328Z,23.8
2023-03-30T01:05:49.266Z,23.9
2023-03-30T01:15:50.948Z,23.9
2023-03-30T01:25:51.072Z,24.3
2023-03-30T01:35:51.877Z,23.9
2023-03-30T01:45:52.613Z,23.8
2023-03-30T01:55:53.397Z,23.8
2023-03-30T02:05:54.133Z,23.6
2023-03-30T02:15:54.781Z,23.9
2023-03-30T02:25:55.555Z,23.8
2023-03-30T02:35:56.127Z,23.8
2023-03-30T02:45:56.835Z,23.6
2023-03-30T02:55:57.329Z,23.8
2023-03-30T03:05:06.505Z,23.3
2023-03-30T03:15:06.268Z,23.4
2023-03-30T03:25:06.585Z,23.3
2023-03-30T03:35:06.255Z,23.4
2023-03-30T03:45:06.055Z,23.3
2023-03-30T03:55:05.798Z,23.6
2023-03-30T04:05:06.727Z,22.9
2023-03-30T04:15:07.707Z,23.3
2023-03-30T04:25:08.507Z,23
2023-03-30T04:35:09.292Z,23.1
2023-03-30T04:45:10.193Z,23.2
2023-03-30T04:55:10.798Z,22.8
2023-03-30T05:05:09.464Z,23.3
2023-03-30T05:15:09.576Z,22.9
2023-03-30T05:25:09.169Z,23.4
2023-03-30T05:35:08.988Z,22.9
2023-03-30T05:45:08.928Z,23.2
2023-03-30T05:55:08.099Z,23.3
2023-03-30T06:05:07.908Z,23.1
2023-03-30T06:15:07.869Z,23.2
2023-03-30T06:25:07.544Z,23.2
2023-03-30T06:35:06.939Z,23.2
2023-03-30T06:45:06.809Z,23.5
2023-03-30T06:55:07.133Z,23.9
2023-03-30T07:05:08.197Z,24.7
2023-03-30T07:15:16.385Z,31.4
2023-03-30T07:25:29.808Z,33.6
2023-03-30T07:35:43.931Z,34.3
2023-03-30T07:45:59.813Z,35.6
2023-03-30T07:56:16.329Z,35
2023-03-30T08:11:35.309Z,35.2
2023-03-30T08:21:52.197Z,35.5
2023-03-30T08:32:07.895Z,23.9
2023-03-30T08:42:17.739Z,32.6
2023-03-30T08:52:28.424Z,36
2023-03-30T09:05:16.013Z,35.4
2023-03-30T09:15:31.834Z,34.9
2023-03-30T09:25:42.463Z,33.8
2023-03-30T09:35:54.447Z,33.6
2023-03-30T09:45:59.481Z,33
2023-03-30T09:56:07.836Z,33.9
2023-03-30T10:06:17.405Z,34.1
2023-03-30T10:16:26.746Z,32.6
2023-03-30T10:26:36.678Z,33.2
2023-03-30T10:36:46.164Z,34.3
2023-03-30T10:46:54.175Z,33.9
2023-03-30T10:57:04.917Z,33.5
2023-03-30T11:07:12.730Z,33.3
2023-03-30T11:13:42.911Z,43.4
2023-03-30T11:23:49.754Z,33.1
2023-03-30T11:33:56.673Z,34.1
2023-03-30T11:44:03.017Z,32.6
2023-03-30T11:54:08.644Z,32.4
2023-03-30T12:04:17.957Z,27.4
2023-03-30T12:14:27.098Z,34.1
2023-03-30T12:24:37.426Z,34.8
2023-03-30T12:34:44.679Z,24.8
2023-03-30T12:44:47.626Z,22.5
2023-03-30T12:54:50.308Z,23.8
2023-03-30T13:04:55.324Z,33.9
2023-03-30T13:14:58.483Z,25.6
2023-03-30T13:25:00.051Z,19.9
2023-03-30T13:35:06.596Z,24.6
2023-03-30T13:45:01.968Z,19.9
2023-03-30T13:55:02.122Z,24.6
2023-03-30T14:05:02.179Z,24.1
2023-03-30T14:15:01.116Z,20.7
2023-03-30T14:25:00.969Z,20.5
2023-03-30T14:35:00.820Z,20.6
2023-03-30T14:45:00.294Z,25.3
2023-03-30T14:55:07.202Z,19.9
2023-03-30T15:05:08.328Z,24.4
2023-03-30T15:15:07.645Z,20.9
2023-03-30T15:25:09.367Z,21.4
2023-03-30T15:35:06.506Z,21.7
2023-03-30T15:45:05.772Z,20.5
2023-03-30T15:55:05.604Z,21.3
2023-03-30T16:05:05.767Z,21.1
2023-03-30T16:15:07.072Z,24
2023-03-30T16:25:07.943Z,20.8
2023-03-30T16:35:09.274Z,20.9
2023-03-30T16:45:10.514Z,24.3
2023-03-30T16:55:11.558Z,24.1
2023-03-30T17:05:11.357Z,24.6
2023-03-30T17:15:11.514Z,20.6
2023-03-30T17:25:10.656Z,20.4
2023-03-30T17:35:10.738Z,24.1
2023-03-30T17:45:10.534Z,20.6
2023-03-30T17:55:10.596Z,23.7
2023-03-30T18:05:10.119Z,24.3
2023-03-30T18:15:09.416Z,24.1
2023-03-30T18:25:14.215Z,24.2
2023-03-30T18:35:09.580Z,24.2
2023-03-30T18:45:09.600Z,23.9
2023-03-30T18:55:09.350Z,24.4
2023-03-30T19:05:09.180Z,24.1
2023-03-30T19:15:09.263Z,24.1
2023-03-30T19:25:08.968Z,24.1
2023-03-30T19:35:08.517Z,24.1
2023-03-30T19:45:08.313Z,24.3
2023-03-30T19:55:08.192Z,24.4
2023-03-30T20:05:07.998Z,23.8
2023-03-30T20:15:07.793Z,23.9
2023-03-30T20:25:07.726Z,24.3
2023-03-30T20:35:07.714Z,23.9
2023-03-30T20:45:07.594Z,23.8
2023-03-30T20:55:07.334Z,24.1
2023-03-30T21:05:09.262Z,24.3
2023-03-30T21:15:09.777Z,24.4
2023-03-30T21:25:10.638Z,24.4
2023-03-30T21:35:11.167Z,24.4
2023-03-30T21:45:11.884Z,24.1
2023-03-30T21:55:12.118Z,24.4
2023-03-30T22:05:13.518Z,24.3
2023-03-30T22:15:15.330Z,24.3
2023-03-30T22:25:17.086Z,24.1
2023-03-30T22:35:19.008Z,24.3
2023-03-30T22:45:20.741Z,24.6
2023-03-30T22:55:22.645Z,24.3
2023-03-30T23:05:23.133Z,24.2
2023-03-30T23:15:23.742Z,24.2
2023-03-30T23:25:24.293Z,23.9
2023-03-30T23:35:25.221Z,24.5
2023-03-30T23:45:25.816Z,24.3
2023-03-30T23:55:26.332Z,24.1
